Norway, MI (49870)

10:56 AM CDT on Ιούλιος 25, 2014 (GMT -0500)
Downtown (KMINORWA3) Elev 942 ft | 45.79 °N, 87.91 °W | Change Station

Current weather conditions updated 0 second ago

Λίγο Νεφελώδης
Λίγο Νεφελώδης
73.8 ° F
Feels Like 76 ° F
N
13.8
Ανεμος Μεταβλητός Ανεμος from Δυτικός
Gusts 13.8 mph

Today is forecast to be nearly the same temperature as yesterday. Καταιγίδες νωρίς. tonight.

Σήμερα
High -- | Low -- ° F
--% Chance of Precip.
Yesterday
High -- | Low -- ° F
Precip. -- in
5:26 AM 8:28 PM
Μηνίσκος, 2% visible
Ατμοσφαιρική Πίεση 29.88 in
Ορατότητα 10.0 Μίλια
Σύννεφα Αίθριος
Δείκτης Δυσφορίας 76 ° F
Σημείο Δρόσου 61 ° F
Υγρασία 64%
Rainfall 0.00 in
Snow Depth Not available.
Υπεριώδης ακτινοβολία (UV) 8 out of 12
Pollen 6.00 out of 12
Air Quality Not available.
Flu Activity Not available.
METAR KIMT 251554Z AUTO 21008KT 180V250 10SM CLR 23/14 A2989 RMK AO2 SLP119 T02280139

More Conditions Fewer Conditions

Ατμοσφαιρική Πίεση 29.88 in
Ορατότητα 10.0 Μίλια
Σύννεφα Αίθριος
Δείκτης Δυσφορίας 76 ° F
Σημείο Δρόσου 61 ° F
Υγρασία 64%
Rainfall 0.00 in
Snow Depth Not available.
Υπεριώδης ακτινοβολία (UV) 8 out of 12
Pollen 6.00 out of 12
Air Quality Not available.
Flu Activity Not available.
METAR KIMT 251554Z AUTO 21008KT 180V250 10SM CLR 23/14 A2989 RMK AO2 SLP119 T02280139

More Conditions Fewer Conditions

10-Day Weather Forecast

Almanac

Αστρονομία

Jul. 25, 2014 Rise Set
Actual Time 5:26 AM CDT 8:28 PM CDT
Civil Twilight 4:51 AM CDT 9:04 PM CDT
Nautical Twilight 4:05 AM CDT 9:49 PM CDT
Astronomical Twilight 3:10 AM CDT 10:43 PM CDT
Moon 4:27 AM CDT 7:22 PM CDT
Length Of Visible Light 16h 12m
Διάρκεια ημέρας
15h 02m
Tomorrow will be 2m 15s shorter.
Μηνίσκος, 2% of the Moon is Illuminated
Σήμερα
Μηνίσκος
Jul 26
New
Aug 3
Πρώτο τέταρτο
Aug 10
Πανσέληνος
Aug 17
Τελευταίο τέταρτο

Today's Extremes

State Highs State Lows

Community

WunderPhotos

Upload Photos

1,737,355 photos uploaded!

Nearby

Snow Depth

Station Depth Elevation
No new snow has been reported.

Earthquake Activity

City Distance Mag. Time & Date
No recent earthquake activity has been reported nearby.
Minimum magnitude displayed is 2.5.

Coastal Water Temperatures

Τοποθεσία Θερμοκρασία
No Stations Reporting

Nearby Weather Stations

Station Location Temp Δείκτης Δυσφορίας Σημείο Δρόσου Υγρασία Ανεμος Precip. Elev Ενημερώθηκε Type
Downtown, Norway, MI 73.8 ° F 76 ° F 61 ° F 64% Δυτικός  με  13.8 mph 0.00 in / hr 942 ft 10:56 AM CDT Rapid Fire
Norway, MI 73.9 ° F 76 ° F 63 ° F 68% ΝΝΔ  με  5.0 mph 0.00 in / hr 1010 ft 10:51 AM CDT Normal
Wiggins Lake, Pembine, WI 63.1 ° F - 58 ° F 82% ΔΒΔ  με  0.0 mph 0.00 in / hr 997 ft 8:12 AM CDT Rapid Fire
Spalding Pine Ave, Spalding, MI 75.2 ° F 77 ° F 62 ° F 62% ΒΒΑ  με  2.7 mph 0.00 in / hr 853 ft 10:56 AM CDT Rapid Fire

Show More Stations Show Fewer Stations